Time;durP1;ratioP1;P1;durP2;ratioP2;P2;SDS_P1;SDS_P2;PMS_P1;PMS_P2;Temp;Humidity;BMP_temperature;BMP_pressure;BME280_temperature;BME280_humidity;BME280_pressure;Samples;Min_cycle;Max_cycle;Signal;HPM_P1;HPM_P2
2023/11/30 00:01:12;;;;;;;8.35;7.65;;;7.30;5.30;;;;;;4956057;29;20509;-75
2023/11/30 00:03:38;;;;;;;7.47;6.80;;;7.40;1.00;;;;;;4956395;29;20057;-75
2023/11/30 00:06:04;;;;;;;9.65;7.65;;;7.30;1.00;;;;;;4938933;29;20031;-75
2023/11/30 00:08:30;;;;;;;8.13;6.50;;;7.30;1.00;;;;;;4957115;28;20031;-75
2023/11/30 00:10:55;;;;;;;8.10;7.25;;;7.30;1.00;;;;;;4956018;28;20077;-75
2023/11/30 00:13:21;;;;;;;8.40;7.30;;;7.40;1.00;;;;;;4956267;28;20031;-75
2023/11/30 00:15:46;;;;;;;8.25;7.40;;;7.40;1.10;;;;;;4938672;29;20034;-75
2023/11/30 00:18:12;;;;;;;8.48;7.70;;;7.40;1.00;;;;;;4956137;28;20023;-75
2023/11/30 00:20:38;;;;;;;11.93;7.60;;;7.40;1.00;;;;;;4955667;29;20046;-75
2023/11/30 00:23:03;;;;;;;8.85;7.95;;;7.40;1.00;;;;;;4955768;29;20108;-75
2023/11/30 00:25:29;;;;;;;8.70;7.80;;;7.40;1.00;;;;;;4938660;29;20034;-75
2023/11/30 00:27:55;;;;;;;9.50;7.93;;;7.50;1.00;;;;;;4955779;28;20070;-75
2023/11/30 00:30:20;;;;;;;9.35;8.07;;;7.50;1.00;;;;;;4955834;29;20038;-75
2023/11/30 00:32:46;;;;;;;8.20;7.28;;;7.50;1.00;;;;;;4955125;29;20047;-75
2023/11/30 00:35:11;;;;;;;8.27;7.40;;;7.50;1.00;;;;;;4955797;28;20050;-76
2023/11/30 00:37:37;;;;;;;8.63;7.72;;;7.50;1.00;;;;;;4955265;29;20034;-75
2023/11/30 00:40:03;;;;;;;8.68;7.88;;;7.50;1.00;;;;;;4955594;29;20110;-75
2023/11/30 00:42:29;;;;;;;10.50;8.82;;;7.60;1.00;;;;;;4950319;29;20065;-75
2023/11/30 00:44:55;;;;;;;19.35;14.23;;;7.50;1.00;;;;;;4955776;29;20031;-75
2023/11/30 00:47:21;;;;;;;22.33;15.77;;;7.50;2.00;;;;;;4955175;29;20035;-75
2023/11/30 00:49:46;;;;;;;19.95;12.60;;;7.50;3.90;;;;;;4955579;29;20059;-75
2023/11/30 00:52:12;;;;;;;14.20;11.32;;;7.50;3.10;;;;;;4954761;29;20035;-75
2023/11/30 00:54:38;;;;;;;16.48;11.43;;;7.40;12.70;;;;;;4938136;29;20090;-75
2023/11/30 00:57:03;;;;;;;13.93;11.60;;;7.40;13.90;;;;;;4954727;28;20031;-75
2023/11/30 00:59:29;;;;;;;13.90;11.50;;;7.40;16.90;;;;;;4954165;28;20069;-75
2023/11/30 01:01:55;;;;;;;15.98;11.93;;;7.40;21.10;;;;;;4954839;29;20078;-75
2023/11/30 01:04:20;;;;;;;15.57;11.40;;;7.40;19.50;;;;;;4955268;28;20106;-75
2023/11/30 01:06:48;;;;;;;15.68;11.85;;;7.30;18.90;;;;;;4951766;28;20042;-75
2023/11/30 01:09:13;;;;;;;15.35;11.10;;;7.30;18.90;;;;;;4955145;29;20019;-75
2023/11/30 01:11:43;;;;;;;13.65;11.48;;;7.30;15.60;;;;;;4954524;29;20110;-75
2023/11/30 01:14:09;;;;;;;13.05;10.30;;;7.30;15.50;;;;;;4954992;28;20024;-75
2023/11/30 01:16:35;;;;;;;16.17;10.80;;;7.30;18.70;;;;;;4954677;29;20428;-75
2023/11/30 01:19:00;;;;;;;13.32;10.45;;;7.40;22.10;;;;;;4955026;29;20050;-75
2023/11/30 01:21:26;;;;;;;10.40;9.35;;;7.30;29.10;;;;;;4954325;28;20170;-76
2023/11/30 01:23:51;;;;;;;10.82;8.63;;;7.30;31.70;;;;;;4954894;28;20028;-75
2023/11/30 01:26:17;;;;;;;9.52;8.57;;;7.30;23.90;;;;;;4954216;29;20028;-75
2023/11/30 01:28:43;;;;;;;10.80;8.88;;;7.30;25.20;;;;;;4954712;29;20490;-75
2023/11/30 01:31:09;;;;;;;9.27;8.32;;;7.40;25.10;;;;;;4957381;28;20640;-75
2023/11/30 01:33:36;;;;;;;8.75;7.85;;;7.40;26.70;;;;;;4954272;29;20051;-75
2023/11/30 01:36:03;;;;;;;9.13;8.23;;;7.40;22.60;;;;;;4954197;29;20019;-75
2023/11/30 01:38:30;;;;;;;9.60;8.70;;;7.40;24.40;;;;;;4952405;29;20433;-75
2023/11/30 01:40:56;;;;;;;9.13;8.23;;;7.40;41.00;;;;;;4936795;29;20027;-75
2023/11/30 01:43:22;;;;;;;9.13;8.20;;;7.40;41.00;;;;;;4954442;29;20024;-75
2023/11/30 01:45:50;;;;;;;9.30;8.40;;;7.40;49.60;;;;;;4954173;29;20029;-75
2023/11/30 01:48:17;;;;;;;9.93;9.00;;;7.40;59.10;;;;;;4954337;29;20050;-75
2023/11/30 01:50:46;;;;;;;10.05;8.98;;;7.40;76.30;;;;;;4953890;29;20078;-75
2023/11/30 01:53:14;;;;;;;10.20;9.20;;;7.40;84.80;;;;;;4954161;29;20027;-76
2023/11/30 01:55:40;;;;;;;9.75;8.82;;;7.40;88.90;;;;;;4953788;28;20031;-75
2023/11/30 01:58:06;;;;;;;10.27;9.25;;;7.30;95.70;;;;;;4954184;29;20058;-75
2023/11/30 02:00:32;;;;;;;8.88;7.97;;;7.30;99.20;;;;;;4954364;28;20066;-75
2023/11/30 02:02:58;;;;;;;9.60;8.73;;;7.30;99.70;;;;;;4954169;28;20039;-75
2023/11/30 02:05:24;;;;;;;10.43;9.43;;;7.30;99.90;;;;;;4954088;29;20106;-75
2023/11/30 02:07:50;;;;;;;12.05;10.77;;;7.20;99.90;;;;;;4952622;29;20114;-75
2023/11/30 02:10:16;;;;;;;13.15;10.45;;;7.20;99.90;;;;;;4953704;28;20126;-75
2023/11/30 02:12:41;;;;;;;14.88;10.63;;;7.20;99.90;;;;;;4953403;28;20058;-75
2023/11/30 02:15:07;;;;;;;11.65;10.43;;;7.10;99.90;;;;;;4953958;29;20035;-75
2023/11/30 02:17:33;;;;;;;11.32;10.15;;;7.20;99.90;;;;;;4953102;29;20031;-75
2023/11/30 02:19:59;;;;;;;11.05;9.90;;;7.10;99.90;;;;;;4953894;28;20086;-75
2023/11/30 02:22:24;;;;;;;11.77;10.55;;;7.20;99.90;;;;;;4935328;29;20437;-75
2023/11/30 02:24:50;;;;;;;12.10;10.82;;;7.20;99.90;;;;;;4953794;29;20567;-75
2023/11/30 02:27:15;;;;;;;13.43;11.30;;;7.20;99.90;;;;;;4953032;29;20035;-75
2023/11/30 02:29:41;;;;;;;12.35;11.02;;;7.10;99.90;;;;;;4953683;28;20062;-75
2023/11/30 02:32:07;;;;;;;12.93;11.45;;;7.10;99.90;;;;;;4952741;28;20086;-75
2023/11/30 02:34:33;;;;;;;12.98;11.30;;;7.10;99.90;;;;;;4953599;29;20066;-75
2023/11/30 02:36:59;;;;;;;13.70;11.65;;;7.10;99.90;;;;;;4949666;28;20031;-75
2023/11/30 02:39:24;;;;;;;12.50;11.20;;;7.10;99.90;;;;;;4950055;29;20027;-75
2023/11/30 02:41:50;;;;;;;12.82;11.27;;;7.10;99.90;;;;;;4952932;29;20042;-75
2023/11/30 02:44:16;;;;;;;11.95;10.23;;;7.10;99.90;;;;;;4949665;28;20122;-75
2023/11/30 02:46:42;;;;;;;10.95;9.85;;;7.00;99.90;;;;;;4952946;29;20397;-75
2023/11/30 02:49:07;;;;;;;11.10;9.93;;;7.00;99.90;;;;;;4935392;29;20032;-75
2023/11/30 02:51:33;;;;;;;11.65;9.98;;;7.10;99.90;;;;;;4952935;29;20053;-75
2023/11/30 02:54:02;;;;;;;10.65;9.65;;;7.00;99.90;;;;;;4953191;29;20067;-75
2023/11/30 02:56:37;;;;;;;12.15;10.23;;;7.00;99.90;;;;;;4952911;29;20023;-75
2023/11/30 02:59:02;;;;;;;12.27;10.65;;;7.00;99.90;;;;;;4952202;29;20058;-75
2023/11/30 03:01:28;;;;;;;10.45;9.23;;;7.00;99.90;;;;;;4952488;29;20063;-75
2023/11/30 03:03:57;;;;;;;10.25;9.25;;;7.00;99.90;;;;;;4953245;28;20023;-75
2023/11/30 03:06:23;;;;;;;11.00;9.95;;;7.10;99.90;;;;;;4953036;29;20377;-75
2023/11/30 03:08:48;;;;;;;9.57;8.68;;;7.10;99.90;;;;;;4950594;28;20026;-75
2023/11/30 03:11:14;;;;;;;11.05;9.10;;;7.10;99.90;;;;;;4952604;29;20382;-75
2023/11/30 03:13:40;;;;;;;11.35;9.65;;;7.10;99.90;;;;;;4935988;29;20314;-75
2023/11/30 03:16:06;;;;;;;9.63;8.63;;;7.10;99.90;;;;;;4934240;29;20034;-75
2023/11/30 03:18:32;;;;;;;10.43;9.32;;;7.10;99.90;;;;;;4953057;28;20019;-75
2023/11/30 03:20:57;;;;;;;11.20;9.95;;;7.10;99.90;;;;;;4952639;28;20035;-75
2023/11/30 03:23:23;;;;;;;11.20;8.38;;;7.20;99.90;;;;;;4939465;29;20384;-75
2023/11/30 03:25:48;;;;;;;11.02;8.70;;;7.10;99.90;;;;;;4956477;29;20552;-75
2023/11/30 03:28:14;;;;;;;9.68;8.13;;;7.20;99.90;;;;;;4956911;29;20473;-75
2023/11/30 03:30:40;;;;;;;8.65;7.85;;;7.10;99.90;;;;;;4956273;28;20469;-75
2023/11/30 03:33:08;;;;;;;8.73;7.38;;;7.20;99.90;;;;;;4955782;28;20046;-75
2023/11/30 03:35:37;;;;;;;8.65;7.82;;;7.10;99.90;;;;;;4958795;28;20023;-75
2023/11/30 03:38:06;;;;;;;7.88;7.18;;;7.10;99.90;;;;;;4937655;29;20047;-75
2023/11/30 03:40:34;;;;;;;8.30;7.50;;;7.20;99.90;;;;;;4956476;29;20027;-75
2023/11/30 03:43:00;;;;;;;8.48;7.65;;;7.10;99.90;;;;;;4956243;29;20035;-75
2023/11/30 03:45:26;;;;;;;9.05;7.63;;;7.10;99.90;;;;;;4956769;29;20090;-75
2023/11/30 03:47:52;;;;;;;9.82;7.75;;;7.10;99.90;;;;;;4955858;29;20126;-75
2023/11/30 03:50:17;;;;;;;10.45;8.15;;;7.10;99.90;;;;;;4956490;29;20038;-75
2023/11/30 03:52:43;;;;;;;12.88;8.13;;;7.10;99.90;;;;;;4955892;28;20303;-75
2023/11/30 03:55:08;;;;;;;7.97;7.28;;;7.00;99.90;;;;;;4956357;28;20235;-75
2023/11/30 03:57:34;;;;;;;8.10;7.30;;;7.10;99.90;;;;;;4955677;29;20090;-75
2023/11/30 04:00:00;;;;;;;7.93;7.22;;;7.10;99.90;;;;;;4959738;28;20360;-75
2023/11/30 04:02:25;;;;;;;9.93;7.28;;;7.10;99.90;;;;;;4957413;28;20038;-75
2023/11/30 04:04:51;;;;;;;8.57;7.75;;;7.10;99.90;;;;;;4956185;29;20031;-75
2023/11/30 04:07:17;;;;;;;7.53;6.75;;;7.10;99.90;;;;;;4937317;29;20039;-75
2023/11/30 04:09:42;;;;;;;8.02;6.95;;;7.00;99.90;;;;;;4956193;29;20481;-76
2023/11/30 04:12:08;;;;;;;8.02;7.25;;;7.00;99.90;;;;;;4955315;28;20118;-75
2023/11/30 04:14:34;;;;;;;8.38;7.05;;;7.00;99.90;;;;;;4938628;29;20089;-75
2023/11/30 04:16:59;;;;;;;8.95;7.47;;;7.10;99.90;;;;;;4955415;29;20031;-75
2023/11/30 04:19:25;;;;;;;8.80;7.60;;;7.10;99.90;;;;;;4955989;28;20512;-75
2023/11/30 04:21:51;;;;;;;7.57;6.85;;;7.00;99.90;;;;;;4955435;29;20027;-75
2023/11/30 04:24:16;;;;;;;10.23;6.45;;;7.00;99.90;;;;;;4955936;29;20042;-75
2023/11/30 04:26:42;;;;;;;8.70;7.57;;;7.00;99.90;;;;;;4937756;29;20039;-75
2023/11/30 04:29:08;;;;;;;7.60;6.82;;;7.00;99.90;;;;;;4955856;29;20035;-75
2023/11/30 04:31:33;;;;;;;7.82;7.07;;;7.00;99.90;;;;;;4937880;29;20058;-75
2023/11/30 04:33:59;;;;;;;7.07;6.38;;;7.00;99.90;;;;;;4955431;28;20071;-75
2023/11/30 04:36:24;;;;;;;7.25;6.55;;;7.00;99.90;;;;;;4955325;28;20370;-76
2023/11/30 04:38:50;;;;;;;9.43;6.78;;;7.00;99.90;;;;;;4952738;29;20023;-76
2023/11/30 04:41:16;;;;;;;8.18;7.30;;;7.00;99.90;;;;;;4954674;29;20102;-75
2023/11/30 04:43:41;;;;;;;7.22;6.53;;;7.00;99.90;;;;;;4955521;29;20035;-75
2023/11/30 04:46:07;;;;;;;7.60;6.78;;;7.00;99.90;;;;;;4954980;29;20054;-75
2023/11/30 04:48:33;;;;;;;7.80;7.05;;;7.00;99.90;;;;;;4955464;29;20070;-75
2023/11/30 04:50:58;;;;;;;7.22;6.47;;;7.00;99.90;;;;;;4954849;29;20027;-76
2023/11/30 04:53:24;;;;;;;8.70;7.03;;;7.00;99.90;;;;;;4955199;28;20067;-76
2023/11/30 04:55:50;;;;;;;7.93;7.07;;;7.10;99.90;;;;;;4954764;28;20050;-75
2023/11/30 04:58:15;;;;;;;7.63;6.65;;;7.00;99.90;;;;;;4955167;29;20038;-76
2023/11/30 05:00:41;;;;;;;7.65;6.95;;;7.00;99.90;;;;;;4954730;29;20031;-76
2023/11/30 05:03:07;;;;;;;8.25;6.68;;;7.00;99.90;;;;;;4954857;29;20028;-76
2023/11/30 05:05:33;;;;;;;7.97;7.28;;;6.90;99.90;;;;;;4954941;29;20485;-76
2023/11/30 05:07:58;;;;;;;8.05;7.15;;;6.90;99.90;;;;;;4935630;29;20189;-76
2023/11/30 05:10:24;;;;;;;8.02;6.05;;;6.80;99.90;;;;;;4954900;29;20060;-76
2023/11/30 05:12:50;;;;;;;5.95;5.43;;;6.80;99.90;;;;;;4954491;29;20051;-76
2023/11/30 05:15:15;;;;;;;6.32;5.72;;;6.80;99.90;;;;;;4954929;28;20042;-76
2023/11/30 05:17:41;;;;;;;5.65;5.25;;;6.80;99.90;;;;;;4954524;29;20020;-76
2023/11/30 05:20:08;;;;;;;5.47;4.97;;;6.70;99.90;;;;;;4951390;28;20041;-76
2023/11/30 05:22:33;;;;;;;5.10;4.70;;;6.70;99.90;;;;;;4954239;29;20031;-76
2023/11/30 05:25:00;;;;;;;5.45;4.93;;;6.70;99.90;;;;;;4954864;29;20115;-76
2023/11/30 05:27:26;;;;;;;6.07;5.55;;;6.60;99.90;;;;;;4953587;28;20030;-76
2023/11/30 05:29:51;;;;;;;5.20;4.72;;;6.60;99.90;;;;;;4954683;29;20455;-76
2023/11/30 05:32:17;;;;;;;5.18;4.78;;;6.50;99.90;;;;;;4953905;29;20425;-76
2023/11/30 05:34:42;;;;;;;4.63;4.32;;;6.50;99.90;;;;;;4954584;28;20031;-75
2023/11/30 05:37:08;;;;;;;5.65;5.10;;;6.50;99.90;;;;;;4935733;29;20031;-76
2023/11/30 05:39:36;;;;;;;6.28;5.68;;;6.50;99.90;;;;;;4953687;28;20034;-76
2023/11/30 05:42:03;;;;;;;6.28;5.60;;;6.50;99.90;;;;;;4958538;28;20035;-76
2023/11/30 05:44:29;;;;;;;5.57;5.13;;;6.50;99.90;;;;;;4953784;28;20027;-76
2023/11/30 05:46:54;;;;;;;6.68;5.72;;;6.50;99.90;;;;;;4935866;29;20036;-76
2023/11/30 05:49:20;;;;;;;6.13;5.40;;;6.50;99.90;;;;;;4937132;29;20473;-76
2023/11/30 05:51:46;;;;;;;7.95;6.07;;;6.50;99.90;;;;;;4953102;29;20474;-76
2023/11/30 05:54:11;;;;;;;6.10;5.53;;;6.50;99.90;;;;;;4952368;28;20042;-76
2023/11/30 05:56:37;;;;;;;5.55;5.13;;;6.50;99.90;;;;;;4938286;29;20058;-75
2023/11/30 05:59:03;;;;;;;6.13;5.55;;;6.50;99.90;;;;;;4955576;29;20031;-75
2023/11/30 06:01:28;;;;;;;5.85;5.38;;;6.40;99.90;;;;;;4952291;29;20031;-75
2023/11/30 06:03:55;;;;;;;8.77;6.22;;;6.40;99.90;;;;;;4931477;29;20033;-75
2023/11/30 06:06:20;;;;;;;6.50;5.93;;;6.40;99.90;;;;;;4952298;28;20458;-75
2023/11/30 06:08:47;;;;;;;6.65;6.05;;;6.40;99.90;;;;;;4930026;29;20019;-75
2023/11/30 06:11:15;;;;;;;6.93;6.05;;;6.40;99.90;;;;;;4928472;29;20038;-75
2023/11/30 06:13:40;;;;;;;6.97;6.32;;;6.40;99.90;;;;;;4928738;29;20031;-75
2023/11/30 06:16:07;;;;;;;8.23;7.50;;;6.40;99.90;;;;;;4929348;28;20022;-75
2023/11/30 06:18:32;;;;;;;7.90;7.05;;;6.40;99.90;;;;;;4934398;29;20094;-75
2023/11/30 06:20:58;;;;;;;9.02;7.07;;;6.30;99.90;;;;;;4946824;29;20494;-75
2023/11/30 06:23:23;;;;;;;8.10;6.95;;;6.30;99.90;;;;;;4934165;29;20020;-75
2023/11/30 06:25:52;;;;;;;7.63;6.88;;;6.30;99.90;;;;;;4945971;29;20015;-75
2023/11/30 06:28:20;;;;;;;7.35;6.65;;;6.20;99.90;;;;;;4946860;29;20473;-75
2023/11/30 06:30:47;;;;;;;8.40;7.47;;;6.20;99.90;;;;;;4940175;29;20024;-76
2023/11/30 06:33:12;;;;;;;8.25;7.45;;;6.10;99.90;;;;;;4946467;29;20043;-75
2023/11/30 06:35:38;;;;;;;7.40;6.72;;;6.20;99.90;;;;;;4929837;29;20572;-75
2023/11/30 06:38:04;;;;;;;7.45;6.85;;;6.10;99.90;;;;;;4950243;28;20023;-75
2023/11/30 06:40:29;;;;;;;7.32;6.57;;;6.10;99.90;;;;;;4954827;29;20389;-75
2023/11/30 06:42:55;;;;;;;7.85;7.07;;;6.10;99.90;;;;;;4954471;28;20027;-75
2023/11/30 06:45:21;;;;;;;6.82;6.22;;;6.00;99.90;;;;;;4953895;29;20444;-75
2023/11/30 06:47:46;;;;;;;8.77;7.75;;;5.90;99.90;;;;;;4952625;29;20453;-75
2023/11/30 06:50:12;;;;;;;8.45;7.70;;;5.90;99.90;;;;;;4954714;29;20031;-76
2023/11/30 06:52:38;;;;;;;7.82;7.07;;;5.90;99.90;;;;;;4952738;28;20031;-75
2023/11/30 06:55:04;;;;;;;7.93;7.18;;;5.90;99.90;;;;;;4936077;29;20200;-75
2023/11/30 06:57:29;;;;;;;8.95;6.90;;;5.90;99.90;;;;;;4952604;29;20034;-75
2023/11/30 06:59:55;;;;;;;9.02;7.15;;;6.00;99.90;;;;;;4952777;29;20073;-75
2023/11/30 07:02:21;;;;;;;6.95;6.30;;;6.00;99.90;;;;;;4950510;29;20497;-75
2023/11/30 07:04:48;;;;;;;7.10;6.40;;;5.90;99.90;;;;;;4951354;29;20093;-75
2023/11/30 07:07:14;;;;;;;7.07;6.47;;;6.00;99.90;;;;;;4950664;29;20039;-75
2023/11/30 07:09:39;;;;;;;8.30;7.10;;;5.90;99.90;;;;;;4950213;29;20027;-75
2023/11/30 07:12:05;;;;;;;8.88;7.15;;;6.00;99.90;;;;;;4946936;29;20034;-75
2023/11/30 07:14:31;;;;;;;9.95;7.35;;;6.00;99.90;;;;;;4951135;28;20172;-75
2023/11/30 07:16:57;;;;;;;8.90;8.00;;;6.00;99.90;;;;;;4952372;29;20158;-75
2023/11/30 07:19:22;;;;;;;9.68;7.72;;;6.00;99.90;;;;;;4953155;28;20110;-75
2023/11/30 07:21:51;;;;;;;7.97;6.90;;;6.00;99.90;;;;;;4952407;29;20114;-75
2023/11/30 07:24:16;;;;;;;7.82;7.15;;;6.00;99.90;;;;;;4952328;28;20035;-75
2023/11/30 07:26:44;;;;;;;7.30;6.70;;;6.10;99.90;;;;;;4935283;29;20039;-75
2023/11/30 07:29:10;;;;;;;7.10;6.40;;;6.10;99.90;;;;;;4953148;29;20031;-75
2023/11/30 07:31:39;;;;;;;6.57;6.07;;;6.10;99.90;;;;;;4934249;29;20031;-75
2023/11/30 07:34:07;;;;;;;6.55;5.95;;;6.10;99.90;;;;;;4933929;29;20122;-76
2023/11/30 07:36:33;;;;;;;5.57;5.07;;;6.10;99.90;;;;;;4933404;29;20020;-75
2023/11/30 07:38:58;;;;;;;6.07;5.63;;;6.10;99.90;;;;;;4930231;29;20479;-75
2023/11/30 07:41:24;;;;;;;6.35;5.85;;;6.10;99.90;;;;;;4933155;29;20027;-76
2023/11/30 07:43:50;;;;;;;6.55;6.05;;;6.10;99.90;;;;;;4935932;29;20492;-75
2023/11/30 07:46:16;;;;;;;6.85;6.25;;;6.10;99.90;;;;;;4916257;29;20043;-76
2023/11/30 07:48:41;;;;;;;6.20;5.70;;;6.20;99.90;;;;;;4916781;29;20417;-76
2023/11/30 07:51:07;;;;;;;6.45;5.32;;;6.20;99.90;;;;;;4932628;29;20030;-75
2023/11/30 07:53:33;;;;;;;5.93;5.20;;;6.20;99.90;;;;;;4933570;29;20042;-76
2023/11/30 07:56:00;;;;;;;5.13;4.72;;;6.30;99.90;;;;;;4915948;29;20028;-77
2023/11/30 07:58:26;;;;;;;5.68;5.18;;;6.30;99.90;;;;;;4916478;29;20023;-76
2023/11/30 08:00:51;;;;;;;6.50;5.93;;;6.30;99.90;;;;;;4933160;29;20107;-76
2023/11/30 08:03:17;;;;;;;5.43;5.03;;;6.30;99.90;;;;;;4921522;29;20513;-76
2023/11/30 08:05:44;;;;;;;6.78;6.28;;;6.30;99.90;;;;;;4933145;29;20028;-76
2023/11/30 08:08:10;;;;;;;8.07;7.28;;;6.30;99.90;;;;;;4934116;29;20423;-76
2023/11/30 08:10:36;;;;;;;7.45;6.70;;;6.30;99.90;;;;;;4936737;29;20370;-76
2023/11/30 08:13:02;;;;;;;7.28;6.70;;;6.30;99.90;;;;;;4936937;29;20030;-76
2023/11/30 08:15:29;;;;;;;9.02;8.13;;;6.30;99.90;;;;;;4936834;29;20071;-76
2023/11/30 08:17:54;;;;;;;8.75;7.78;;;6.30;99.90;;;;;;4936400;29;20115;-76
2023/11/30 08:20:20;;;;;;;9.85;8.90;;;6.30;99.90;;;;;;4936701;29;20110;-76
2023/11/30 08:22:46;;;;;;;10.90;9.80;;;6.40;99.90;;;;;;4936357;29;20015;-76
2023/11/30 08:25:13;;;;;;;6.78;6.28;;;6.40;99.90;;;;;;4936823;29;20060;-76
2023/11/30 08:27:38;;;;;;;7.10;6.45;;;6.40;99.90;;;;;;4918869;29;20123;-76
2023/11/30 08:30:05;;;;;;;8.10;7.40;;;6.40;99.90;;;;;;4936619;29;20336;-76
2023/11/30 08:32:31;;;;;;;9.30;8.40;;;6.40;99.90;;;;;;4936074;29;20051;-76
2023/11/30 08:34:56;;;;;;;12.45;9.88;;;6.40;99.90;;;;;;4936378;29;20556;-76
2023/11/30 08:37:22;;;;;;;11.70;9.13;;;6.40;99.90;;;;;;4936037;29;20031;-77
2023/11/30 08:39:47;;;;;;;10.63;9.05;;;6.40;99.90;;;;;;4936493;29;20494;-77
2023/11/30 08:42:14;;;;;;;10.93;7.68;;;6.50;99.90;;;;;;4932474;29;20273;-76
2023/11/30 08:44:40;;;;;;;8.13;7.32;;;6.40;99.90;;;;;;4932053;29;20059;-76
2023/11/30 08:47:06;;;;;;;7.63;6.93;;;6.40;99.90;;;;;;4932263;29;20039;-77
2023/11/30 08:49:32;;;;;;;7.72;6.75;;;6.50;99.90;;;;;;4932300;29;20126;-76
2023/11/30 08:51:57;;;;;;;6.75;6.15;;;6.50;99.90;;;;;;4914025;29;20039;-76
2023/11/30 08:54:23;;;;;;;6.72;6.13;;;6.40;99.90;;;;;;4915557;29;20466;-76
2023/11/30 08:56:49;;;;;;;6.72;6.13;;;6.50;99.90;;;;;;4914143;29;20478;-76
2023/11/30 08:59:16;;;;;;;4.80;4.50;;;6.50;99.90;;;;;;4931943;29;20028;-77
2023/11/30 09:01:41;;;;;;;5.28;4.80;;;6.40;99.90;;;;;;4914434;29;20095;-76
2023/11/30 09:04:08;;;;;;;7.10;6.45;;;6.50;99.90;;;;;;4931130;29;20446;-77
2023/11/30 09:06:34;;;;;;;7.18;6.60;;;6.40;99.90;;;;;;4931812;29;20027;-77
2023/11/30 09:09:01;;;;;;;16.23;10.88;;;6.40;99.90;;;;;;4931538;29;20028;-75
2023/11/30 09:11:29;;;;;;;7.25;6.57;;;6.40;99.90;;;;;;4929595;29;20063;-75
2023/11/30 09:13:55;;;;;;;4.40;4.18;;;6.40;99.90;;;;;;4931176;29;20036;-75
2023/11/30 09:16:21;;;;;;;3.97;3.67;;;6.40;99.90;;;;;;4930490;29;20490;-75
2023/11/30 09:18:47;;;;;;;6.13;5.63;;;6.40;99.90;;;;;;4930467;29;20082;-76
2023/11/30 09:21:13;;;;;;;8.63;5.97;;;6.40;99.90;;;;;;4931264;29;20031;-75
2023/11/30 09:23:39;;;;;;;7.00;6.40;;;6.40;99.90;;;;;;4931047;29;20023;-75
2023/11/30 09:26:06;;;;;;;6.20;5.63;;;6.40;99.90;;;;;;4931051;29;20446;-75
2023/11/30 09:28:32;;;;;;;6.32;5.70;;;6.40;99.90;;;;;;4931734;29;20079;-75
2023/11/30 09:31:01;;;;;;;7.53;6.47;;;6.50;99.90;;;;;;4930534;29;20028;-77
2023/11/30 09:33:28;;;;;;;7.95;7.28;;;6.50;99.90;;;;;;4946498;29;20122;-75
2023/11/30 09:35:56;;;;;;;13.55;12.25;;;6.50;99.90;;;;;;4950580;29;20109;-75
2023/11/30 09:38:21;;;;;;;8.57;7.78;;;6.40;99.90;;;;;;4929770;29;20027;-76
2023/11/30 09:40:47;;;;;;;8.00;7.30;;;6.40;99.90;;;;;;4950005;29;20442;-76
2023/11/30 09:43:19;;;;;;;8.23;6.75;;;6.30;99.90;;;;;;4948415;29;20015;-77
2023/11/30 09:45:46;;;;;;;9.00;8.10;;;6.40;99.90;;;;;;4949199;29;20043;-78
2023/11/30 09:48:13;;;;;;;7.43;6.63;;;6.40;99.90;;;;;;4950191;29;20026;-77
2023/11/30 09:50:39;;;;;;;9.05;7.45;;;6.50;99.90;;;;;;4950274;29;20027;-77
2023/11/30 09:53:05;;;;;;;11.65;10.15;;;6.50;99.90;;;;;;4949611;29;20117;-76
2023/11/30 09:55:31;;;;;;;12.55;10.02;;;6.50;99.90;;;;;;4933291;29;20035;-76
2023/11/30 09:57:59;;;;;;;11.90;10.43;;;6.40;99.90;;;;;;4949606;29;20469;-77
2023/11/30 10:00:24;;;;;;;10.75;9.77;;;6.40;99.90;;;;;;4949716;29;20035;-78
2023/11/30 10:02:54;;;;;;;14.88;13.38;;;6.50;99.90;;;;;;4950154;29;20027;-77
2023/11/30 10:05:20;;;;;;;15.80;14.15;;;6.40;99.90;;;;;;4933119;29;20070;-77
2023/11/30 10:07:45;;;;;;;18.63;15.40;;;6.40;99.90;;;;;;4948608;29;20499;-76
2023/11/30 10:10:11;;;;;;;16.60;14.70;;;6.40;99.90;;;;;;4932172;29;20305;-76
2023/11/30 10:12:37;;;;;;;16.42;14.65;;;6.40;99.90;;;;;;4947730;29;20062;-76
2023/11/30 10:15:03;;;;;;;14.23;12.73;;;6.40;99.90;;;;;;4950011;29;20085;-76
2023/11/30 10:17:30;;;;;;;15.27;13.70;;;6.40;99.90;;;;;;4949809;29;20042;-76
2023/11/30 10:19:55;;;;;;;14.18;12.75;;;6.50;99.90;;;;;;4932114;29;20031;-76
2023/11/30 10:22:22;;;;;;;17.98;13.63;;;6.50;99.90;;;;;;4949678;29;20023;-76
2023/11/30 10:24:51;;;;;;;13.07;11.80;;;6.40;99.90;;;;;;4930173;29;20401;-76
2023/11/30 10:27:21;;;;;;;11.60;10.40;;;6.40;99.90;;;;;;4948701;29;20031;-76
2023/11/30 10:29:48;;;;;;;10.50;9.50;;;6.40;99.90;;;;;;4935447;29;20039;-76
2023/11/30 10:32:15;;;;;;;6.47;5.88;;;6.40;99.90;;;;;;4953021;29;20074;-76
2023/11/30 10:34:48;;;;;;;7.68;6.97;;;6.40;99.90;;;;;;4936514;29;20067;-76
2023/11/30 10:37:19;;;;;;;5.75;5.25;;;6.40;99.90;;;;;;4953522;29;20526;-76
2023/11/30 10:39:51;;;;;;;5.40;5.00;;;6.40;99.90;;;;;;4951087;29;20119;-76
2023/11/30 10:42:17;;;;;;;7.80;7.00;;;6.40;99.90;;;;;;4935927;29;20059;-75
2023/11/30 10:44:48;;;;;;;8.68;7.80;;;6.30;99.90;;;;;;4953688;28;20552;-76
2023/11/30 10:47:16;;;;;;;9.55;8.65;;;6.30;99.90;;;;;;4950082;28;20063;-75
2023/11/30 10:49:43;;;;;;;7.55;6.90;;;6.40;99.90;;;;;;4953615;29;20425;-75
2023/11/30 10:52:10;;;;;;;7.60;6.90;;;6.40;99.90;;;;;;4953080;29;20117;-76
2023/11/30 10:54:49;;;;;;;6.47;5.97;;;6.30;99.90;;;;;;4953478;29;20038;-75
2023/11/30 10:57:16;;;;;;;7.75;6.97;;;6.30;99.90;;;;;;4952853;28;20062;-76
2023/11/30 10:59:44;;;;;;;9.98;8.77;;;6.30;99.90;;;;;;4953443;28;20074;-76
2023/11/30 11:02:11;;;;;;;6.60;5.78;;;6.20;99.90;;;;;;4953040;29;20150;-75
2023/11/30 11:04:40;;;;;;;4.15;3.72;;;6.10;99.90;;;;;;4953427;29;20046;-75
2023/11/30 11:07:08;;;;;;;3.75;3.45;;;6.10;99.90;;;;;;4952875;29;20492;-76
2023/11/30 11:09:54;;;;;;;4.10;3.90;;;6.10;99.90;;;;;;4936138;29;20287;-76
2023/11/30 11:12:24;;;;;;;6.75;6.13;;;6.20;99.90;;;;;;4952586;28;20456;-75
2023/11/30 11:15:03;;;;;;;4.85;4.55;;;6.10;99.90;;;;;;4953486;28;20051;-76
2023/11/30 11:17:29;;;;;;;3.95;3.67;;;6.10;99.90;;;;;;4952911;29;20089;-75
2023/11/30 11:20:01;;;;;;;3.50;3.30;;;6.10;99.90;;;;;;4952758;28;20027;-76
2023/11/30 11:22:29;;;;;;;3.90;3.28;;;6.20;99.90;;;;;;4952733;29;20031;-76
2023/11/30 11:24:59;;;;;;;3.60;3.30;;;6.20;99.90;;;;;;4953208;29;20034;-76
2023/11/30 11:27:30;;;;;;;2.70;2.60;;;6.30;99.90;;;;;;4952501;28;20032;-76
2023/11/30 11:29:58;;;;;;;3.05;2.85;;;6.30;99.90;;;;;;4952984;28;20102;-76
2023/11/30 11:32:25;;;;;;;3.45;3.25;;;6.40;99.90;;;;;;4935314;29;20057;-76
2023/11/30 11:34:54;;;;;;;2.80;2.60;;;6.40;99.90;;;;;;4936038;29;20449;-77
2023/11/30 11:37:20;;;;;;;2.05;1.85;;;6.40;99.90;;;;;;4952718;29;20093;-75
2023/11/30 11:39:46;;;;;;;2.35;2.15;;;6.40;99.90;;;;;;4935890;29;20482;-76
2023/11/30 11:42:12;;;;;;;2.33;2.10;;;6.40;99.90;;;;;;4952417;28;20028;-76
2023/11/30 11:44:38;;;;;;;2.38;2.25;;;6.40;99.90;;;;;;4956798;28;20438;-76
2023/11/30 11:47:06;;;;;;;3.20;3.00;;;6.40;99.90;;;;;;4943159;28;20122;-76
2023/11/30 11:49:34;;;;;;;5.70;5.30;;;6.30;99.90;;;;;;4956673;28;20031;-76
2023/11/30 11:52:00;;;;;;;7.85;5.70;;;6.30;99.90;;;;;;4956001;29;20162;-76
2023/11/30 11:54:25;;;;;;;7.55;6.85;;;6.40;99.90;;;;;;4956539;29;20131;-75
2023/11/30 11:56:52;;;;;;;5.63;5.13;;;6.30;99.90;;;;;;4937721;29;20028;-76
2023/11/30 11:59:30;;;;;;;6.72;6.13;;;6.30;99.90;;;;;;4956499;28;20038;-76
2023/11/30 12:01:57;;;;;;;4.70;4.30;;;6.30;99.90;;;;;;4956002;29;20074;-76
2023/11/30 12:04:27;;;;;;;4.40;4.00;;;6.30;99.90;;;;;;4960035;28;20027;-76
2023/11/30 12:06:53;;;;;;;3.05;2.85;;;6.30;99.90;;;;;;4955865;28;20075;-76
2023/11/30 12:09:19;;;;;;;2.50;2.40;;;6.40;99.90;;;;;;4951318;29;20062;-76
2023/11/30 12:11:45;;;;;;;3.42;2.72;;;6.40;99.90;;;;;;4955647;29;20035;-75
2023/11/30 12:14:11;;;;;;;2.55;2.38;;;6.40;99.90;;;;;;4938072;29;20167;-75
2023/11/30 12:16:37;;;;;;;3.25;2.78;;;6.40;99.90;;;;;;4955887;29;20101;-75
2023/11/30 12:19:03;;;;;;;2.50;2.40;;;6.40;99.90;;;;;;4956180;28;20030;-75
2023/11/30 12:21:28;;;;;;;2.60;2.42;;;6.40;99.90;;;;;;4955718;29;20035;-75
2023/11/30 12:23:55;;;;;;;2.78;2.67;;;6.40;99.90;;;;;;4955793;29;20031;-76
2023/11/30 12:26:20;;;;;;;3.10;2.90;;;6.40;99.90;;;;;;4955536;29;20035;-76
2023/11/30 12:28:46;;;;;;;4.55;4.10;;;6.40;99.90;;;;;;4956059;28;20027;-75
2023/11/30 12:31:12;;;;;;;3.70;3.50;;;6.50;99.90;;;;;;4938280;29;20023;-76
2023/11/30 12:33:37;;;;;;;4.40;3.53;;;6.50;99.90;;;;;;4955688;29;20516;-76
2023/11/30 12:36:03;;;;;;;4.97;4.60;;;6.50;99.90;;;;;;4938034;29;20545;-76
2023/11/30 12:38:30;;;;;;;4.03;3.72;;;6.50;99.90;;;;;;4955527;28;20024;-75
2023/11/30 12:40:56;;;;;;;3.40;3.20;;;6.50;99.90;;;;;;4937960;29;20019;-76
2023/11/30 12:43:22;;;;;;;3.53;3.30;;;6.50;99.90;;;;;;4954533;29;20020;-76
2023/11/30 12:45:48;;;;;;;4.60;3.95;;;6.50;99.90;;;;;;4955262;28;20552;-76
2023/11/30 12:48:17;;;;;;;3.75;3.55;;;6.40;99.90;;;;;;4953330;28;20027;-75